KFLD/FLD METAR and TAF weather

Enter ICAO airport designator
Station Type Date Time Source
KFLD METAR 2019/04/25 09:53 UTC NOAA

KFLD 250953Z AUTO 17003KT 10SM CLR 07/03 A2978 RMK AO2 SLP086 T00670033


Station Type Date Time Source
KFLD Decoded METAR 2019/04/25 09:53 UTC NOAA

FOND DU LAC COUNTY AIRPORT, WI, United States (KFLD) 43-46N 88-29W 240M
Apr 25, 2019 - 05:53 AM EDT / 2019.04.25 0953 UTC
Wind: from the S (170 degrees) at 3 MPH (3 KT):0
Visibility: 10 mile(s):0
Sky conditions: clear
Temperature: 44.1 F (6.7 C)
Dew Point: 37.9 F (3.3 C)
Relative Humidity: 78%
Pressure (altimeter): 29.78 in. Hg (1008 hPa)
ob: KFLD 250953Z AUTO 17003KT 10SM CLR 07/03 A2978 RMK AO2 SLP086 T00670033
cycle: 10

Station Type Date Time Source
KFLD TAF UTC NOAA

Error!

Example: see airport list